sensor_id;sensor_type;location;lat;lon;timestamp;P1;durP1;ratioP1;P2;durP2;ratioP2
13343;SDS011;6741;48.964;9.406;2022-07-17T00:01:22;4.17;;;3.77;;
13343;SDS011;6741;48.964;9.406;2022-07-17T00:03:49;4.50;;;3.70;;
13343;SDS011;6741;48.964;9.406;2022-07-17T00:06:15;4.00;;;3.60;;
13343;SDS011;6741;48.964;9.406;2022-07-17T00:08:44;6.53;;;4.03;;
13343;SDS011;6741;48.964;9.406;2022-07-17T00:11:11;4.60;;;4.20;;
13343;SDS011;6741;48.964;9.406;2022-07-17T00:13:38;4.13;;;3.73;;
13343;SDS011;6741;48.964;9.406;2022-07-17T00:16:05;4.40;;;4.00;;
13343;SDS011;6741;48.964;9.406;2022-07-17T00:18:33;5.07;;;4.57;;
13343;SDS011;6741;48.964;9.406;2022-07-17T00:21:00;4.90;;;4.23;;
13343;SDS011;6741;48.964;9.406;2022-07-17T00:23:27;5.37;;;4.30;;
13343;SDS011;6741;48.964;9.406;2022-07-17T00:25:55;4.30;;;4.00;;
13343;SDS011;6741;48.964;9.406;2022-07-17T00:28:22;5.03;;;4.27;;
13343;SDS011;6741;48.964;9.406;2022-07-17T00:30:50;4.60;;;4.20;;
13343;SDS011;6741;48.964;9.406;2022-07-17T00:33:17;4.93;;;4.53;;
13343;SDS011;6741;48.964;9.406;2022-07-17T00:35:44;5.20;;;4.80;;
13343;SDS011;6741;48.964;9.406;2022-07-17T00:38:11;4.87;;;4.43;;
13343;SDS011;6741;48.964;9.406;2022-07-17T00:40:39;4.73;;;4.17;;
13343;SDS011;6741;48.964;9.406;2022-07-17T00:43:07;5.00;;;4.60;;
13343;SDS011;6741;48.964;9.406;2022-07-17T00:45:34;5.40;;;4.87;;
13343;SDS011;6741;48.964;9.406;2022-07-17T00:48:01;4.80;;;4.30;;
13343;SDS011;6741;48.964;9.406;2022-07-17T00:50:30;4.40;;;4.00;;
13343;SDS011;6741;48.964;9.406;2022-07-17T00:52:58;8.40;;;4.43;;
13343;SDS011;6741;48.964;9.406;2022-07-17T00:55:26;5.03;;;4.30;;
13343;SDS011;6741;48.964;9.406;2022-07-17T00:57:53;5.03;;;4.53;;
13343;SDS011;6741;48.964;9.406;2022-07-17T01:00:23;5.00;;;4.10;;
13343;SDS011;6741;48.964;9.406;2022-07-17T01:02:53;4.40;;;4.00;;
13343;SDS011;6741;48.964;9.406;2022-07-17T01:05:21;4.30;;;3.90;;
13343;SDS011;6741;48.964;9.406;2022-07-17T01:07:49;4.53;;;4.23;;
13343;SDS011;6741;48.964;9.406;2022-07-17T01:10:18;4.57;;;4.00;;
13343;SDS011;6741;48.964;9.406;2022-07-17T01:12:45;4.63;;;4.23;;
13343;SDS011;6741;48.964;9.406;2022-07-17T01:15:14;4.40;;;4.00;;
13343;SDS011;6741;48.964;9.406;2022-07-17T01:17:43;4.87;;;4.47;;
13343;SDS011;6741;48.964;9.406;2022-07-17T01:20:10;5.10;;;4.60;;
13343;SDS011;6741;48.964;9.406;2022-07-17T01:22:43;5.60;;;5.10;;
13343;SDS011;6741;48.964;9.406;2022-07-17T01:25:13;7.33;;;5.53;;
13343;SDS011;6741;48.964;9.406;2022-07-17T01:27:41;6.30;;;5.73;;
13343;SDS011;6741;48.964;9.406;2022-07-17T01:30:09;5.53;;;5.00;;
13343;SDS011;6741;48.964;9.406;2022-07-17T01:32:37;6.20;;;5.60;;
13343;SDS011;6741;48.964;9.406;2022-07-17T01:35:05;7.20;;;6.00;;
13343;SDS011;6741;48.964;9.406;2022-07-17T01:37:33;6.27;;;5.67;;
13343;SDS011;6741;48.964;9.406;2022-07-17T01:40:02;6.73;;;5.47;;
13343;SDS011;6741;48.964;9.406;2022-07-17T01:42:29;6.80;;;6.03;;
13343;SDS011;6741;48.964;9.406;2022-07-17T01:44:56;8.87;;;6.47;;
13343;SDS011;6741;48.964;9.406;2022-07-17T01:47:23;7.20;;;6.50;;
13343;SDS011;6741;48.964;9.406;2022-07-17T01:49:51;8.50;;;6.53;;
13343;SDS011;6741;48.964;9.406;2022-07-17T01:52:19;6.87;;;6.17;;
13343;SDS011;6741;48.964;9.406;2022-07-17T01:54:47;7.60;;;6.77;;
13343;SDS011;6741;48.964;9.406;2022-07-17T01:57:15;7.37;;;6.57;;
13343;SDS011;6741;48.964;9.406;2022-07-17T01:59:43;9.53;;;6.93;;
13343;SDS011;6741;48.964;9.406;2022-07-17T02:02:10;6.90;;;6.20;;
13343;SDS011;6741;48.964;9.406;2022-07-17T02:04:38;7.53;;;6.80;;
13343;SDS011;6741;48.964;9.406;2022-07-17T02:07:07;8.53;;;6.83;;
13343;SDS011;6741;48.964;9.406;2022-07-17T02:09:34;7.73;;;6.80;;
13343;SDS011;6741;48.964;9.406;2022-07-17T02:12:01;6.90;;;6.20;;
13343;SDS011;6741;48.964;9.406;2022-07-17T02:14:30;6.60;;;5.90;;
13343;SDS011;6741;48.964;9.406;2022-07-17T02:16:57;9.50;;;6.60;;
13343;SDS011;6741;48.964;9.406;2022-07-17T02:19:24;7.80;;;6.27;;
13343;SDS011;6741;48.964;9.406;2022-07-17T02:21:51;8.23;;;6.30;;
13343;SDS011;6741;48.964;9.406;2022-07-17T02:24:19;7.10;;;6.20;;
13343;SDS011;6741;48.964;9.406;2022-07-17T02:26:46;7.07;;;6.37;;
13343;SDS011;6741;48.964;9.406;2022-07-17T02:29:13;6.70;;;6.10;;
13343;SDS011;6741;48.964;9.406;2022-07-17T02:31:41;6.73;;;6.13;;
13343;SDS011;6741;48.964;9.406;2022-07-17T02:34:08;6.27;;;5.67;;
13343;SDS011;6741;48.964;9.406;2022-07-17T02:36:36;5.70;;;5.20;;
13343;SDS011;6741;48.964;9.406;2022-07-17T02:39:03;5.53;;;5.00;;
13343;SDS011;6741;48.964;9.406;2022-07-17T02:41:30;4.93;;;4.53;;
13343;SDS011;6741;48.964;9.406;2022-07-17T02:43:57;5.27;;;4.87;;
13343;SDS011;6741;48.964;9.406;2022-07-17T02:46:24;5.27;;;4.50;;
13343;SDS011;6741;48.964;9.406;2022-07-17T02:48:52;4.60;;;4.30;;
13343;SDS011;6741;48.964;9.406;2022-07-17T02:51:19;4.73;;;4.33;;
13343;SDS011;6741;48.964;9.406;2022-07-17T02:53:46;4.67;;;4.27;;
13343;SDS011;6741;48.964;9.406;2022-07-17T02:56:13;4.23;;;3.93;;
13343;SDS011;6741;48.964;9.406;2022-07-17T02:58:40;4.87;;;4.47;;
13343;SDS011;6741;48.964;9.406;2022-07-17T03:01:07;4.77;;;4.37;;
13343;SDS011;6741;48.964;9.406;2022-07-17T03:03:34;6.03;;;4.77;;
13343;SDS011;6741;48.964;9.406;2022-07-17T03:06:02;6.20;;;4.70;;
13343;SDS011;6741;48.964;9.406;2022-07-17T03:08:29;5.37;;;4.43;;
13343;SDS011;6741;48.964;9.406;2022-07-17T03:10:56;5.33;;;4.00;;
13343;SDS011;6741;48.964;9.406;2022-07-17T03:13:23;5.37;;;4.77;;
13343;SDS011;6741;48.964;9.406;2022-07-17T03:15:50;4.70;;;4.30;;
13343;SDS011;6741;48.964;9.406;2022-07-17T03:18:17;5.20;;;4.80;;
13343;SDS011;6741;48.964;9.406;2022-07-17T03:20:43;5.17;;;4.67;;
13343;SDS011;6741;48.964;9.406;2022-07-17T03:23:12;5.20;;;4.80;;
13343;SDS011;6741;48.964;9.406;2022-07-17T03:25:39;5.70;;;4.77;;
13343;SDS011;6741;48.964;9.406;2022-07-17T03:28:06;4.77;;;4.37;;
13343;SDS011;6741;48.964;9.406;2022-07-17T03:30:33;5.63;;;5.13;;
13343;SDS011;6741;48.964;9.406;2022-07-17T03:33:00;5.27;;;4.50;;
13343;SDS011;6741;48.964;9.406;2022-07-17T03:35:27;5.47;;;4.97;;
13343;SDS011;6741;48.964;9.406;2022-07-17T03:37:53;5.03;;;4.63;;
13343;SDS011;6741;48.964;9.406;2022-07-17T03:40:22;6.43;;;4.70;;
13343;SDS011;6741;48.964;9.406;2022-07-17T03:42:49;5.50;;;5.00;;
13343;SDS011;6741;48.964;9.406;2022-07-17T03:45:15;5.53;;;5.00;;
13343;SDS011;6741;48.964;9.406;2022-07-17T03:47:43;5.30;;;4.90;;
13343;SDS011;6741;48.964;9.406;2022-07-17T03:50:09;5.70;;;5.20;;
13343;SDS011;6741;48.964;9.406;2022-07-17T03:52:36;8.00;;;5.20;;
13343;SDS011;6741;48.964;9.406;2022-07-17T03:55:04;5.37;;;4.87;;
13343;SDS011;6741;48.964;9.406;2022-07-17T03:57:32;5.33;;;4.93;;
13343;SDS011;6741;48.964;9.406;2022-07-17T03:59:59;5.93;;;5.33;;
13343;SDS011;6741;48.964;9.406;2022-07-17T04:02:26;6.17;;;4.50;;
13343;SDS011;6741;48.964;9.406;2022-07-17T04:04:53;5.30;;;4.90;;
13343;SDS011;6741;48.964;9.406;2022-07-17T04:07:20;5.57;;;5.07;;
13343;SDS011;6741;48.964;9.406;2022-07-17T04:09:54;5.67;;;5.17;;
13343;SDS011;6741;48.964;9.406;2022-07-17T04:12:21;5.73;;;5.33;;
13343;SDS011;6741;48.964;9.406;2022-07-17T04:14:50;5.67;;;4.80;;
13343;SDS011;6741;48.964;9.406;2022-07-17T04:17:17;5.83;;;5.23;;
13343;SDS011;6741;48.964;9.406;2022-07-17T04:19:44;5.70;;;4.63;;
13343;SDS011;6741;48.964;9.406;2022-07-17T04:22:11;6.23;;;5.10;;
13343;SDS011;6741;48.964;9.406;2022-07-17T04:24:38;6.43;;;5.03;;
13343;SDS011;6741;48.964;9.406;2022-07-17T04:27:05;5.57;;;5.10;;
13343;SDS011;6741;48.964;9.406;2022-07-17T04:29:32;5.10;;;4.70;;
13343;SDS011;6741;48.964;9.406;2022-07-17T04:32:01;5.53;;;5.03;;
13343;SDS011;6741;48.964;9.406;2022-07-17T04:34:29;6.13;;;4.87;;
13343;SDS011;6741;48.964;9.406;2022-07-17T04:36:57;5.33;;;4.93;;
13343;SDS011;6741;48.964;9.406;2022-07-17T04:39:24;4.83;;;4.47;;
13343;SDS011;6741;48.964;9.406;2022-07-17T04:41:52;5.47;;;4.87;;
13343;SDS011;6741;48.964;9.406;2022-07-17T04:44:18;5.23;;;4.83;;
13343;SDS011;6741;48.964;9.406;2022-07-17T04:46:45;6.57;;;4.93;;
13343;SDS011;6741;48.964;9.406;2022-07-17T04:49:14;5.47;;;5.00;;
13343;SDS011;6741;48.964;9.406;2022-07-17T04:51:41;5.77;;;5.27;;
13343;SDS011;6741;48.964;9.406;2022-07-17T04:54:08;5.37;;;4.97;;
13343;SDS011;6741;48.964;9.406;2022-07-17T04:56:35;5.33;;;4.83;;
13343;SDS011;6741;48.964;9.406;2022-07-17T04:59:02;5.27;;;4.80;;
13343;SDS011;6741;48.964;9.406;2022-07-17T05:01:29;5.07;;;4.67;;
13343;SDS011;6741;48.964;9.406;2022-07-17T05:03:56;5.40;;;5.00;;
13343;SDS011;6741;48.964;9.406;2022-07-17T05:06:24;4.97;;;4.57;;
13343;SDS011;6741;48.964;9.406;2022-07-17T05:08:51;5.37;;;4.63;;
13343;SDS011;6741;48.964;9.406;2022-07-17T05:11:18;5.83;;;5.13;;
13343;SDS011;6741;48.964;9.406;2022-07-17T05:13:45;5.10;;;4.70;;
13343;SDS011;6741;48.964;9.406;2022-07-17T05:16:12;5.47;;;4.90;;
13343;SDS011;6741;48.964;9.406;2022-07-17T05:18:39;5.73;;;4.67;;
13343;SDS011;6741;48.964;9.406;2022-07-17T05:21:07;5.77;;;4.27;;
13343;SDS011;6741;48.964;9.406;2022-07-17T05:23:36;5.00;;;4.50;;
13343;SDS011;6741;48.964;9.406;2022-07-17T05:26:03;4.87;;;4.40;;
13343;SDS011;6741;48.964;9.406;2022-07-17T05:28:32;4.40;;;4.10;;
13343;SDS011;6741;48.964;9.406;2022-07-17T05:31:00;4.87;;;4.33;;
13343;SDS011;6741;48.964;9.406;2022-07-17T05:33:27;3.90;;;3.60;;
13343;SDS011;6741;48.964;9.406;2022-07-17T05:35:54;3.50;;;3.20;;
13343;SDS011;6741;48.964;9.406;2022-07-17T05:38:21;4.17;;;3.87;;
13343;SDS011;6741;48.964;9.406;2022-07-17T05:40:49;3.63;;;3.30;;
13343;SDS011;6741;48.964;9.406;2022-07-17T05:43:16;3.67;;;3.37;;
13343;SDS011;6741;48.964;9.406;2022-07-17T05:45:43;3.63;;;3.37;;
13343;SDS011;6741;48.964;9.406;2022-07-17T05:48:10;3.60;;;3.30;;
13343;SDS011;6741;48.964;9.406;2022-07-17T05:50:37;3.63;;;3.33;;
13343;SDS011;6741;48.964;9.406;2022-07-17T05:53:04;3.40;;;3.20;;
13343;SDS011;6741;48.964;9.406;2022-07-17T05:55:31;3.47;;;2.93;;
13343;SDS011;6741;48.964;9.406;2022-07-17T05:57:59;3.17;;;2.87;;
13343;SDS011;6741;48.964;9.406;2022-07-17T06:00:26;3.20;;;2.87;;
13343;SDS011;6741;48.964;9.406;2022-07-17T06:02:53;3.00;;;2.70;;
13343;SDS011;6741;48.964;9.406;2022-07-17T06:05:21;3.22;;;3.00;;
13343;SDS011;6741;48.964;9.406;2022-07-17T06:07:48;2.80;;;2.60;;
13343;SDS011;6741;48.964;9.406;2022-07-17T06:10:15;2.60;;;2.40;;
13343;SDS011;6741;48.964;9.406;2022-07-17T06:12:42;3.25;;;2.95;;
13343;SDS011;6741;48.964;9.406;2022-07-17T06:15:11;3.13;;;2.78;;
13343;SDS011;6741;48.964;9.406;2022-07-17T06:17:38;5.38;;;2.70;;
13343;SDS011;6741;48.964;9.406;2022-07-17T06:20:05;2.95;;;2.75;;
13343;SDS011;6741;48.964;9.406;2022-07-17T06:22:33;2.70;;;2.50;;
13343;SDS011;6741;48.964;9.406;2022-07-17T06:25:00;2.75;;;2.33;;
13343;SDS011;6741;48.964;9.406;2022-07-17T06:27:28;2.67;;;2.47;;
13343;SDS011;6741;48.964;9.406;2022-07-17T06:29:55;4.53;;;2.85;;
13343;SDS011;6741;48.964;9.406;2022-07-17T06:32:23;3.50;;;2.83;;
13343;SDS011;6741;48.964;9.406;2022-07-17T06:34:51;2.70;;;2.50;;
13343;SDS011;6741;48.964;9.406;2022-07-17T06:37:18;3.85;;;2.30;;
13343;SDS011;6741;48.964;9.406;2022-07-17T06:39:46;2.50;;;2.30;;
13343;SDS011;6741;48.964;9.406;2022-07-17T06:42:13;2.53;;;2.33;;
13343;SDS011;6741;48.964;9.406;2022-07-17T06:44:40;2.42;;;2.22;;
13343;SDS011;6741;48.964;9.406;2022-07-17T06:47:06;3.00;;;2.63;;
13343;SDS011;6741;48.964;9.406;2022-07-17T06:49:35;2.75;;;2.28;;
13343;SDS011;6741;48.964;9.406;2022-07-17T06:52:02;3.22;;;2.30;;
13343;SDS011;6741;48.964;9.406;2022-07-17T06:54:29;3.47;;;2.10;;
13343;SDS011;6741;48.964;9.406;2022-07-17T06:56:56;2.45;;;2.25;;
13343;SDS011;6741;48.964;9.406;2022-07-17T06:59:23;3.25;;;2.60;;
13343;SDS011;6741;48.964;9.406;2022-07-17T07:01:50;3.15;;;2.20;;
13343;SDS011;6741;48.964;9.406;2022-07-17T07:04:18;4.78;;;2.47;;
13343;SDS011;6741;48.964;9.406;2022-07-17T07:06:46;2.78;;;2.10;;
13343;SDS011;6741;48.964;9.406;2022-07-17T07:09:13;2.78;;;2.25;;
13343;SDS011;6741;48.964;9.406;2022-07-17T07:11:40;3.72;;;2.38;;
13343;SDS011;6741;48.964;9.406;2022-07-17T07:14:07;5.20;;;2.28;;
13343;SDS011;6741;48.964;9.406;2022-07-17T07:16:34;1.90;;;1.73;;
13343;SDS011;6741;48.964;9.406;2022-07-17T07:19:02;2.00;;;1.90;;
13343;SDS011;6741;48.964;9.406;2022-07-17T07:21:29;2.80;;;2.35;;
13343;SDS011;6741;48.964;9.406;2022-07-17T07:23:57;1.80;;;1.70;;
13343;SDS011;6741;48.964;9.406;2022-07-17T07:26:24;3.00;;;2.15;;
13343;SDS011;6741;48.964;9.406;2022-07-17T07:28:52;4.05;;;1.90;;
13343;SDS011;6741;48.964;9.406;2022-07-17T07:31:19;1.95;;;1.80;;
13343;SDS011;6741;48.964;9.406;2022-07-17T07:33:46;3.67;;;2.10;;
13343;SDS011;6741;48.964;9.406;2022-07-17T07:36:13;2.13;;;1.95;;
13343;SDS011;6741;48.964;9.406;2022-07-17T07:38:40;1.95;;;1.77;;
13343;SDS011;6741;48.964;9.406;2022-07-17T07:41:09;1.90;;;1.80;;
13343;SDS011;6741;48.964;9.406;2022-07-17T07:43:36;1.67;;;1.55;;
13343;SDS011;6741;48.964;9.406;2022-07-17T07:46:03;2.65;;;1.50;;
13343;SDS011;6741;48.964;9.406;2022-07-17T07:48:30;2.60;;;1.90;;
13343;SDS011;6741;48.964;9.406;2022-07-17T07:50:57;2.03;;;1.90;;
13343;SDS011;6741;48.964;9.406;2022-07-17T07:53:24;2.17;;;1.88;;
13343;SDS011;6741;48.964;9.406;2022-07-17T07:55:51;1.83;;;1.73;;
13343;SDS011;6741;48.964;9.406;2022-07-17T07:58:20;2.20;;;2.00;;
13343;SDS011;6741;48.964;9.406;2022-07-17T08:00:47;2.83;;;1.77;;
13343;SDS011;6741;48.964;9.406;2022-07-17T08:03:14;1.80;;;1.70;;
13343;SDS011;6741;48.964;9.406;2022-07-17T08:05:41;1.77;;;1.63;;
13343;SDS011;6741;48.964;9.406;2022-07-17T08:08:08;2.05;;;1.70;;
13343;SDS011;6741;48.964;9.406;2022-07-17T08:10:35;2.75;;;1.70;;
13343;SDS011;6741;48.964;9.406;2022-07-17T08:13:02;1.80;;;1.70;;
13343;SDS011;6741;48.964;9.406;2022-07-17T08:15:31;3.72;;;1.63;;
13343;SDS011;6741;48.964;9.406;2022-07-17T08:17:59;2.72;;;1.80;;
13343;SDS011;6741;48.964;9.406;2022-07-17T08:20:26;1.67;;;1.58;;
13343;SDS011;6741;48.964;9.406;2022-07-17T08:22:53;2.00;;;1.80;;
13343;SDS011;6741;48.964;9.406;2022-07-17T08:25:20;2.15;;;1.75;;
13343;SDS011;6741;48.964;9.406;2022-07-17T08:27:47;3.03;;;2.00;;
13343;SDS011;6741;48.964;9.406;2022-07-17T08:30:14;5.15;;;1.75;;
13343;SDS011;6741;48.964;9.406;2022-07-17T08:32:42;1.88;;;1.77;;
13343;SDS011;6741;48.964;9.406;2022-07-17T08:35:10;1.70;;;1.60;;
13343;SDS011;6741;48.964;9.406;2022-07-17T08:37:43;2.00;;;1.85;;
13343;SDS011;6741;48.964;9.406;2022-07-17T08:40:16;1.77;;;1.67;;
13343;SDS011;6741;48.964;9.406;2022-07-17T08:42:43;2.45;;;2.08;;
13343;SDS011;6741;48.964;9.406;2022-07-17T08:45:10;3.33;;;1.98;;
13343;SDS011;6741;48.964;9.406;2022-07-17T08:47:38;1.77;;;1.67;;
13343;SDS011;6741;48.964;9.406;2022-07-17T08:50:07;1.80;;;1.70;;
13343;SDS011;6741;48.964;9.406;2022-07-17T08:52:36;1.90;;;1.80;;
13343;SDS011;6741;48.964;9.406;2022-07-17T08:55:07;2.15;;;1.60;;
13343;SDS011;6741;48.964;9.406;2022-07-17T08:57:36;1.80;;;1.70;;
13343;SDS011;6741;48.964;9.406;2022-07-17T09:00:05;3.47;;;1.80;;
13343;SDS011;6741;48.964;9.406;2022-07-17T09:02:33;2.30;;;1.88;;
13343;SDS011;6741;48.964;9.406;2022-07-17T09:05:01;1.90;;;1.70;;
13343;SDS011;6741;48.964;9.406;2022-07-17T09:07:29;2.00;;;1.90;;
13343;SDS011;6741;48.964;9.406;2022-07-17T09:09:56;2.15;;;1.95;;
13343;SDS011;6741;48.964;9.406;2022-07-17T09:12:24;2.00;;;1.80;;
13343;SDS011;6741;48.964;9.406;2022-07-17T09:14:53;3.60;;;2.10;;
13343;SDS011;6741;48.964;9.406;2022-07-17T09:17:19;2.17;;;1.90;;
13343;SDS011;6741;48.964;9.406;2022-07-17T09:19:47;1.80;;;1.70;;
13343;SDS011;6741;48.964;9.406;2022-07-17T09:22:16;1.80;;;1.70;;
13343;SDS011;6741;48.964;9.406;2022-07-17T09:24:46;1.80;;;1.70;;
13343;SDS011;6741;48.964;9.406;2022-07-17T09:27:15;2.00;;;1.90;;
13343;SDS011;6741;48.964;9.406;2022-07-17T09:29:54;2.00;;;1.90;;
13343;SDS011;6741;48.964;9.406;2022-07-17T09:32:23;1.65;;;1.55;;
13343;SDS011;6741;48.964;9.406;2022-07-17T09:34:53;2.33;;;1.60;;
13343;SDS011;6741;48.964;9.406;2022-07-17T09:37:21;1.65;;;1.55;;
13343;SDS011;6741;48.964;9.406;2022-07-17T09:39:51;4.75;;;2.00;;
13343;SDS011;6741;48.964;9.406;2022-07-17T09:42:23;1.52;;;1.42;;
13343;SDS011;6741;48.964;9.406;2022-07-17T09:44:58;1.70;;;1.60;;
13343;SDS011;6741;48.964;9.406;2022-07-17T09:47:26;1.60;;;1.50;;
13343;SDS011;6741;48.964;9.406;2022-07-17T09:49:55;2.65;;;1.90;;
13343;SDS011;6741;48.964;9.406;2022-07-17T09:52:24;1.80;;;1.70;;
13343;SDS011;6741;48.964;9.406;2022-07-17T09:54:56;1.95;;;1.85;;
13343;SDS011;6741;48.964;9.406;2022-07-17T09:57:26;1.48;;;1.38;;
13343;SDS011;6741;48.964;9.406;2022-07-17T09:59:54;1.60;;;1.50;;
13343;SDS011;6741;48.964;9.406;2022-07-17T10:02:22;1.95;;;1.42;;
13343;SDS011;6741;48.964;9.406;2022-07-17T10:04:50;1.42;;;1.33;;
13343;SDS011;6741;48.964;9.406;2022-07-17T10:07:17;1.80;;;1.55;;
13343;SDS011;6741;48.964;9.406;2022-07-17T10:09:45;1.80;;;1.70;;
13343;SDS011;6741;48.964;9.406;2022-07-17T10:12:13;2.75;;;1.63;;
13343;SDS011;6741;48.964;9.406;2022-07-17T10:14:42;1.15;;;1.13;;
13343;SDS011;6741;48.964;9.406;2022-07-17T10:17:13;2.00;;;1.80;;
13343;SDS011;6741;48.964;9.406;2022-07-17T10:19:44;1.30;;;1.20;;
13343;SDS011;6741;48.964;9.406;2022-07-17T10:22:14;1.63;;;1.52;;
13343;SDS011;6741;48.964;9.406;2022-07-17T10:24:45;5.15;;;1.35;;
13343;SDS011;6741;48.964;9.406;2022-07-17T10:27:22;2.85;;;1.30;;
13343;SDS011;6741;48.964;9.406;2022-07-17T10:30:00;1.40;;;1.30;;
13343;SDS011;6741;48.964;9.406;2022-07-17T10:32:29;1.35;;;1.30;;
13343;SDS011;6741;48.964;9.406;2022-07-17T10:34:58;1.77;;;1.50;;
13343;SDS011;6741;48.964;9.406;2022-07-17T10:37:27;2.47;;;1.33;;
13343;SDS011;6741;48.964;9.406;2022-07-17T10:39:59;1.67;;;1.30;;
13343;SDS011;6741;48.964;9.406;2022-07-17T10:42:41;1.40;;;1.35;;
13343;SDS011;6741;48.964;9.406;2022-07-17T10:45:10;1.52;;;1.42;;
13343;SDS011;6741;48.964;9.406;2022-07-17T10:47:45;1.45;;;1.35;;
13343;SDS011;6741;48.964;9.406;2022-07-17T10:50:15;1.75;;;1.40;;
13343;SDS011;6741;48.964;9.406;2022-07-17T10:52:43;1.35;;;1.20;;
13343;SDS011;6741;48.964;9.406;2022-07-17T10:55:17;3.90;;;1.55;;
13343;SDS011;6741;48.964;9.406;2022-07-17T10:57:48;1.13;;;1.10;;
13343;SDS011;6741;48.964;9.406;2022-07-17T11:00:15;3.80;;;1.55;;
13343;SDS011;6741;48.964;9.406;2022-07-17T11:02:43;1.40;;;1.30;;
13343;SDS011;6741;48.964;9.406;2022-07-17T11:05:11;2.25;;;1.60;;
13343;SDS011;6741;48.964;9.406;2022-07-17T11:07:48;1.40;;;1.25;;
13343;SDS011;6741;48.964;9.406;2022-07-17T11:10:17;1.85;;;1.38;;
13343;SDS011;6741;48.964;9.406;2022-07-17T11:12:44;1.67;;;1.40;;
13343;SDS011;6741;48.964;9.406;2022-07-17T11:15:12;1.52;;;1.38;;
13343;SDS011;6741;48.964;9.406;2022-07-17T11:17:43;1.48;;;1.38;;
13343;SDS011;6741;48.964;9.406;2022-07-17T11:20:11;1.50;;;1.20;;
13343;SDS011;6741;48.964;9.406;2022-07-17T11:22:39;1.20;;;1.20;;
13343;SDS011;6741;48.964;9.406;2022-07-17T11:25:06;1.83;;;1.50;;
13343;SDS011;6741;48.964;9.406;2022-07-17T11:27:35;1.67;;;1.30;;
13343;SDS011;6741;48.964;9.406;2022-07-17T11:30:04;1.52;;;1.42;;
13343;SDS011;6741;48.964;9.406;2022-07-17T11:32:38;1.02;;;1.02;;
13343;SDS011;6741;48.964;9.406;2022-07-17T11:35:13;1.52;;;1.30;;
13343;SDS011;6741;48.964;9.406;2022-07-17T11:37:44;1.35;;;1.20;;
13343;SDS011;6741;48.964;9.406;2022-07-17T11:40:14;1.00;;;1.00;;
13343;SDS011;6741;48.964;9.406;2022-07-17T11:42:41;1.98;;;1.27;;
13343;SDS011;6741;48.964;9.406;2022-07-17T11:45:08;1.55;;;1.45;;
13343;SDS011;6741;48.964;9.406;2022-07-17T11:47:37;1.15;;;1.15;;
13343;SDS011;6741;48.964;9.406;2022-07-17T11:50:05;1.90;;;1.67;;
13343;SDS011;6741;48.964;9.406;2022-07-17T11:52:41;1.52;;;1.42;;
13343;SDS011;6741;48.964;9.406;2022-07-17T11:55:09;1.20;;;1.20;;
13343;SDS011;6741;48.964;9.406;2022-07-17T11:57:44;2.55;;;1.35;;
13343;SDS011;6741;48.964;9.406;2022-07-17T12:00:13;1.23;;;1.17;;
13343;SDS011;6741;48.964;9.406;2022-07-17T12:02:43;1.20;;;1.20;;
13343;SDS011;6741;48.964;9.406;2022-07-17T12:05:10;1.20;;;1.10;;
13343;SDS011;6741;48.964;9.406;2022-07-17T12:07:39;1.40;;;1.30;;
13343;SDS011;6741;48.964;9.406;2022-07-17T12:10:13;1.60;;;1.10;;
13343;SDS011;6741;48.964;9.406;2022-07-17T12:12:52;1.23;;;1.23;;
13343;SDS011;6741;48.964;9.406;2022-07-17T12:15:21;1.70;;;1.48;;
13343;SDS011;6741;48.964;9.406;2022-07-17T12:17:50;1.65;;;1.20;;
13343;SDS011;6741;48.964;9.406;2022-07-17T12:20:17;1.60;;;1.48;;
13343;SDS011;6741;48.964;9.406;2022-07-17T12:22:44;1.17;;;1.15;;
13343;SDS011;6741;48.964;9.406;2022-07-17T12:25:22;1.65;;;1.55;;
13343;SDS011;6741;48.964;9.406;2022-07-17T12:27:49;1.60;;;1.27;;
13343;SDS011;6741;48.964;9.406;2022-07-17T12:30:16;1.52;;;1.42;;
13343;SDS011;6741;48.964;9.406;2022-07-17T12:32:43;2.05;;;1.27;;
13343;SDS011;6741;48.964;9.406;2022-07-17T12:35:14;1.20;;;1.20;;
13343;SDS011;6741;48.964;9.406;2022-07-17T12:37:41;1.30;;;1.23;;
13343;SDS011;6741;48.964;9.406;2022-07-17T12:40:08;1.20;;;1.20;;
13343;SDS011;6741;48.964;9.406;2022-07-17T12:42:36;2.22;;;1.40;;
13343;SDS011;6741;48.964;9.406;2022-07-17T12:45:03;1.33;;;1.25;;
13343;SDS011;6741;48.964;9.406;2022-07-17T12:47:30;1.30;;;1.20;;
13343;SDS011;6741;48.964;9.406;2022-07-17T12:49:57;1.40;;;1.30;;
13343;SDS011;6741;48.964;9.406;2022-07-17T12:52:26;1.30;;;1.17;;
13343;SDS011;6741;48.964;9.406;2022-07-17T12:54:53;1.50;;;1.40;;
13343;SDS011;6741;48.964;9.406;2022-07-17T12:57:20;1.85;;;1.40;;
13343;SDS011;6741;48.964;9.406;2022-07-17T12:59:47;1.27;;;1.17;;
13343;SDS011;6741;48.964;9.406;2022-07-17T13:02:14;1.38;;;1.27;;
13343;SDS011;6741;48.964;9.406;2022-07-17T13:04:41;1.70;;;1.60;;
13343;SDS011;6741;48.964;9.406;2022-07-17T13:07:08;1.67;;;1.30;;
13343;SDS011;6741;48.964;9.406;2022-07-17T13:09:36;1.40;;;1.38;;
13343;SDS011;6741;48.964;9.406;2022-07-17T13:12:03;2.13;;;1.58;;
13343;SDS011;6741;48.964;9.406;2022-07-17T13:14:30;1.38;;;1.27;;
13343;SDS011;6741;48.964;9.406;2022-07-17T13:16:57;1.25;;;1.20;;
13343;SDS011;6741;48.964;9.406;2022-07-17T13:19:25;1.13;;;1.13;;
13343;SDS011;6741;48.964;9.406;2022-07-17T13:21:52;1.77;;;1.30;;
13343;SDS011;6741;48.964;9.406;2022-07-17T13:24:19;3.15;;;1.60;;
13343;SDS011;6741;48.964;9.406;2022-07-17T13:26:48;1.70;;;1.50;;
13343;SDS011;6741;48.964;9.406;2022-07-17T13:29:15;1.50;;;1.40;;
13343;SDS011;6741;48.964;9.406;2022-07-17T13:31:42;3.25;;;1.73;;
13343;SDS011;6741;48.964;9.406;2022-07-17T13:34:09;1.63;;;1.52;;
13343;SDS011;6741;48.964;9.406;2022-07-17T13:36:35;3.13;;;1.40;;
13343;SDS011;6741;48.964;9.406;2022-07-17T13:39:03;1.23;;;1.20;;
13343;SDS011;6741;48.964;9.406;2022-07-17T13:41:31;1.30;;;1.15;;
13343;SDS011;6741;48.964;9.406;2022-07-17T13:44:00;1.95;;;1.50;;
13343;SDS011;6741;48.964;9.406;2022-07-17T13:46:27;1.30;;;1.20;;
13343;SDS011;6741;48.964;9.406;2022-07-17T13:48:54;1.75;;;1.40;;
13343;SDS011;6741;48.964;9.406;2022-07-17T13:51:21;1.95;;;1.40;;
13343;SDS011;6741;48.964;9.406;2022-07-17T13:53:48;1.40;;;1.30;;
13343;SDS011;6741;48.964;9.406;2022-07-17T13:56:15;2.47;;;1.50;;
13343;SDS011;6741;48.964;9.406;2022-07-17T13:58:42;2.92;;;1.50;;
13343;SDS011;6741;48.964;9.406;2022-07-17T14:01:12;1.30;;;1.20;;
13343;SDS011;6741;48.964;9.406;2022-07-17T14:03:39;1.30;;;1.20;;
13343;SDS011;6741;48.964;9.406;2022-07-17T14:06:06;1.55;;;1.45;;
13343;SDS011;6741;48.964;9.406;2022-07-17T14:08:33;1.73;;;1.30;;
13343;SDS011;6741;48.964;9.406;2022-07-17T14:11:01;2.72;;;1.67;;
13343;SDS011;6741;48.964;9.406;2022-07-17T14:13:29;1.75;;;1.65;;
13343;SDS011;6741;48.964;9.406;2022-07-17T14:15:56;2.45;;;1.67;;
13343;SDS011;6741;48.964;9.406;2022-07-17T14:18:24;1.67;;;1.13;;
13343;SDS011;6741;48.964;9.406;2022-07-17T14:20:51;1.60;;;1.50;;
13343;SDS011;6741;48.964;9.406;2022-07-17T14:23:18;1.40;;;1.30;;
13343;SDS011;6741;48.964;9.406;2022-07-17T14:25:45;2.30;;;1.40;;
13343;SDS011;6741;48.964;9.406;2022-07-17T14:28:12;1.83;;;1.27;;
13343;SDS011;6741;48.964;9.406;2022-07-17T14:30:39;1.10;;;1.10;;
13343;SDS011;6741;48.964;9.406;2022-07-17T14:33:06;1.27;;;1.17;;
13343;SDS011;6741;48.964;9.406;2022-07-17T14:35:35;1.10;;;1.10;;
13343;SDS011;6741;48.964;9.406;2022-07-17T14:38:02;1.45;;;1.35;;
13343;SDS011;6741;48.964;9.406;2022-07-17T14:40:31;1.70;;;1.60;;
13343;SDS011;6741;48.964;9.406;2022-07-17T14:42:58;1.73;;;1.30;;
13343;SDS011;6741;48.964;9.406;2022-07-17T14:45:25;2.80;;;1.35;;
13343;SDS011;6741;48.964;9.406;2022-07-17T14:47:52;1.75;;;1.30;;
13343;SDS011;6741;48.964;9.406;2022-07-17T14:50:19;1.38;;;1.27;;
13343;SDS011;6741;48.964;9.406;2022-07-17T14:52:48;1.30;;;1.20;;
13343;SDS011;6741;48.964;9.406;2022-07-17T14:55:14;2.55;;;1.58;;
13343;SDS011;6741;48.964;9.406;2022-07-17T14:57:41;1.20;;;1.15;;
13343;SDS011;6741;48.964;9.406;2022-07-17T15:00:09;1.30;;;1.17;;
13343;SDS011;6741;48.964;9.406;2022-07-17T15:02:36;1.38;;;1.27;;
13343;SDS011;6741;48.964;9.406;2022-07-17T15:05:03;1.60;;;1.15;;